Time;durP1;ratioP1;P1;durP2;ratioP2;P2;SDS_P1;SDS_P2;PMS_P1;PMS_P2;Temp;Humidity;BMP_temperature;BMP_pressure;BME280_temperature;BME280_humidity;BME280_pressure;Samples;Min_cycle;Max_cycle;Signal;HPM_P1;HPM_P2
2022/11/25 00:01:26;;;;;;;78.80;24.20;;;;;;;2.80;100.00;101284.66;4854984;29;20174;-48
2022/11/25 00:03:53;;;;;;;79.85;25.48;;;;;;;2.81;100.00;101274.94;4854588;29;20691;-44
2022/11/25 00:06:33;;;;;;;88.10;26.25;;;;;;;2.86;100.00;101282.03;4853456;29;20197;-44
2022/11/25 00:09:19;;;;;;;80.82;25.35;;;;;;;2.88;100.00;101282.00;4854929;29;20543;-42
2022/11/25 00:11:45;;;;;;;84.80;27.35;;;;;;;2.89;100.00;101287.31;4854534;29;20206;-46
2022/11/25 00:14:13;;;;;;;68.63;26.23;;;;;;;2.93;100.00;101292.59;4866252;29;20232;-42
2022/11/25 00:16:39;;;;;;;116.30;29.13;;;;;;;2.94;100.00;101289.94;4857552;29;20278;-47
2022/11/25 00:19:05;;;;;;;59.00;27.48;;;;;;;2.98;100.00;101286.44;4857889;29;20926;-46
2022/11/25 00:21:33;;;;;;;91.00;30.45;;;;;;;2.99;100.00;101285.53;4858018;29;20229;-43
2022/11/25 00:24:01;;;;;;;81.80;30.73;;;;;;;2.98;100.00;101280.25;4857941;29;20178;-44
2022/11/25 00:26:30;;;;;;;76.05;30.52;;;;;;;2.98;100.00;101272.31;4857624;29;20291;-43
2022/11/25 00:28:58;;;;;;;78.18;30.67;;;;;;;2.99;100.00;101274.94;4874715;29;20210;-47
2022/11/25 00:31:29;;;;;;;103.32;30.88;;;;;;;2.97;100.00;101267.88;4876404;29;20174;-48
2022/11/25 00:33:54;;;;;;;75.72;29.98;;;;;;;2.96;100.00;101268.78;4874989;29;20662;-44
2022/11/25 00:36:23;;;;;;;79.70;30.83;;;;;;;2.95;100.00;101270.56;4876184;29;20178;-45
2022/11/25 00:38:54;;;;;;;113.93;34.88;;;;;;;2.92;100.00;101251.13;4874910;29;20210;-45
2022/11/25 00:46:48;;;;;;;91.30;30.15;;;;;;;2.92;100.00;101274.97;4860579;29;20209;-45
2022/11/25 00:49:14;;;;;;;69.55;29.02;;;;;;;2.86;100.00;101260.84;4865217;29;20209;-45
2022/11/25 00:51:39;;;;;;;120.28;32.15;;;;;;;2.84;100.00;101267.00;4865432;29;20190;-44
2022/11/25 00:54:05;;;;;;;100.32;30.52;;;;;;;2.82;100.00;101266.09;4863638;29;20209;-45
2022/11/25 00:56:31;;;;;;;108.05;31.92;;;;;;;2.84;100.00;101269.63;4862153;29;20194;-46
2022/11/25 00:58:57;;;;;;;86.63;30.58;;;;;;;2.79;100.00;101268.75;4864331;29;20181;-46
2022/11/25 01:01:23;;;;;;;98.00;32.03;;;;;;;2.77;100.00;101260.81;4860030;29;20329;-46
2022/11/25 01:03:50;;;;;;;110.57;31.23;;;;;;;2.76;100.00;101274.06;4862760;29;20555;-46
2022/11/25 01:06:16;;;;;;;118.38;29.83;;;;;;;2.72;100.00;101281.13;4866941;29;20364;-44
2022/11/25 01:08:41;;;;;;;114.70;31.38;;;;;;;2.74;100.00;101278.47;4865819;29;20308;-46
2022/11/25 01:11:11;;;;;;;99.53;28.98;;;;;;;2.71;100.00;101286.38;4861097;29;20296;-46
2022/11/25 01:13:39;;;;;;;77.40;28.73;;;;;;;2.72;100.00;101286.41;4872139;29;21156;-47
2022/11/25 01:16:06;;;;;;;89.93;29.58;;;;;;;2.72;100.00;101289.03;4871197;29;20617;-46
2022/11/25 01:18:32;;;;;;;78.10;29.80;;;;;;;2.74;100.00;101294.34;4871868;29;20280;-46
2022/11/25 01:21:09;;;;;;;131.73;31.70;;;;;;;2.69;100.00;101299.63;4871254;29;20215;-46
2022/11/25 01:23:36;;;;;;;128.65;29.63;;;;;;;2.67;100.00;101301.41;4868626;29;20198;-44
2022/11/25 01:26:04;;;;;;;86.53;29.77;;;;;;;2.74;100.00;101297.00;4864652;29;20190;-46
2022/11/25 01:28:30;;;;;;;119.45;29.08;;;;;;;2.67;100.00;101296.97;4864880;29;20222;-47
2022/11/25 01:31:04;;;;;;;91.38;29.02;;;;;;;2.63;100.00;101297.84;4866512;29;20193;-45
2022/11/25 01:33:33;;;;;;;99.50;28.42;;;;;;;2.66;100.00;101289.03;4884106;29;20718;-42
2022/11/25 01:36:07;;;;;;;113.20;30.75;;;;;;;2.62;100.00;101287.25;4870076;29;20178;-43
2022/11/25 01:38:33;;;;;;;104.43;27.73;;;;;;;2.59;100.00;101295.19;4871618;29;20213;-43
2022/11/25 01:40:59;;;;;;;108.47;25.90;;;;;;;2.56;100.00;101297.81;4864881;29;20209;-43
2022/11/25 01:43:26;;;;;;;109.32;28.13;;;;;;;2.55;100.00;101296.06;4860526;29;20621;-44
2022/11/25 01:45:53;;;;;;;104.22;26.58;;;;;;;2.57;100.00;101289.03;4864598;29;20186;-42
2022/11/25 01:48:32;;;;;;;95.80;24.88;;;;;;;2.56;100.00;101287.25;4862066;29;20686;-42
2022/11/25 01:50:58;;;;;;;77.28;24.38;;;;;;;2.57;100.00;101286.38;4865283;29;20193;-43
2022/11/25 01:53:25;;;;;;;88.97;25.23;;;;;;;2.57;100.00;101283.72;4866117;29;20173;-41
2022/11/25 01:55:57;;;;;;;86.60;25.38;;;;;;;2.58;100.00;101282.84;4863081;29;20639;-42
2022/11/25 01:58:35;;;;;;;84.63;24.25;;;;;;;2.61;100.00;101286.38;4865714;29;20698;-41
2022/11/25 02:01:00;;;;;;;98.25;25.90;;;;;;;2.57;100.00;101281.97;4866194;29;20397;-41
2022/11/25 02:03:34;;;;;;;77.88;23.48;;;;;;;2.61;100.00;101285.50;4858207;29;20202;-43
2022/11/25 02:06:20;;;;;;;88.18;23.65;;;;;;;2.56;100.00;101279.31;4864455;29;20193;-42
2022/11/25 02:08:49;;;;;;;96.50;23.73;;;;;;;2.58;100.00;101270.53;4867601;29;20742;-42
2022/11/25 02:11:18;;;;;;;87.65;23.55;;;;;;;2.55;100.00;101266.97;4864984;29;20198;-42
2022/11/25 02:13:46;;;;;;;83.03;23.38;;;;;;;2.55;100.00;101264.31;4865300;29;20185;-40
2022/11/25 02:16:11;;;;;;;80.28;23.35;;;;;;;2.58;100.00;101274.91;4860999;29;20194;-41
2022/11/25 02:18:37;;;;;;;47.08;22.00;;;;;;;2.59;100.00;101263.47;4865567;29;20268;-43
2022/11/25 02:21:04;;;;;;;73.65;25.58;;;;;;;2.56;100.00;101266.97;4875160;28;20189;-41
2022/11/25 02:23:39;;;;;;;63.78;22.80;;;;;;;2.61;100.00;101249.34;4864101;29;20189;-43
2022/11/25 02:26:05;;;;;;;58.92;22.30;;;;;;;2.50;100.00;101248.47;4865537;29;20285;-44
2022/11/25 02:28:32;;;;;;;64.57;20.40;;;;;;;2.36;100.00;101236.94;4872509;29;20304;-44
2022/11/25 02:30:58;;;;;;;76.05;20.42;;;;;;;2.32;100.00;101246.66;4865806;29;20186;-43
2022/11/25 02:33:24;;;;;;;53.55;19.67;;;;;;;2.36;100.00;101243.16;4859322;29;20194;-43
2022/11/25 02:35:57;;;;;;;77.63;20.48;;;;;;;2.36;100.00;101248.44;4858544;29;20273;-45
2022/11/25 02:38:41;;;;;;;59.03;21.92;;;;;;;2.40;100.00;101242.25;4859879;29;20206;-42
2022/11/25 02:41:11;;;;;;;51.70;22.08;;;;;;;2.38;100.00;101256.34;4876182;28;20200;-42
2022/11/25 02:43:37;;;;;;;52.90;22.17;;;;;;;2.41;100.00;101261.66;4855649;29;20189;-44
2022/11/25 02:46:04;;;;;;;40.30;20.67;;;;;;;2.44;100.00;101274.88;4876410;29;20560;-40
2022/11/25 02:48:32;;;;;;;48.30;22.08;;;;;;;2.47;100.00;101265.22;4863782;29;20307;-43
2022/11/25 02:50:58;;;;;;;47.35;20.92;;;;;;;2.53;100.00;101252.88;4872462;29;20285;-43
2022/11/25 02:53:24;;;;;;;45.22;22.00;;;;;;;2.53;100.00;101253.75;4860665;29;20257;-43
2022/11/25 02:55:50;;;;;;;45.97;22.00;;;;;;;2.46;100.00;101259.91;4875584;29;20955;-42
2022/11/25 02:58:15;;;;;;;51.78;23.77;;;;;;;2.48;100.00;101259.03;4865449;29;20220;-43
2022/11/25 03:00:42;;;;;;;58.47;24.13;;;;;;;2.48;100.00;101259.03;4863169;29;20252;-42
2022/11/25 03:03:08;;;;;;;49.22;23.58;;;;;;;2.47;100.00;101259.91;4870329;29;20202;-43
2022/11/25 03:05:34;;;;;;;54.22;22.17;;;;;;;2.46;100.00;101259.91;4863357;29;20229;-43
2022/11/25 03:08:00;;;;;;;57.03;23.27;;;;;;;2.46;100.00;101265.19;4861794;29;20224;-43
2022/11/25 03:10:28;;;;;;;50.67;23.50;;;;;;;2.50;100.00;101268.75;4855979;29;20218;-42
2022/11/25 03:12:53;;;;;;;50.53;23.73;;;;;;;2.47;100.00;101267.84;4861849;29;20260;-42
2022/11/25 03:15:20;;;;;;;50.83;24.73;;;;;;;2.45;100.00;101266.97;4869403;29;20204;-45
2022/11/25 03:17:46;;;;;;;55.65;23.77;;;;;;;2.47;100.00;101278.44;4867605;29;20271;-43
2022/11/25 03:20:14;;;;;;;54.88;24.67;;;;;;;2.51;100.00;101265.19;4877276;29;20272;-44
2022/11/25 03:22:41;;;;;;;47.35;24.10;;;;;;;2.53;100.00;101266.09;4855370;29;20678;-44
2022/11/25 03:25:08;;;;;;;59.78;25.98;;;;;;;2.54;100.00;101276.69;4861221;29;20258;-42
2022/11/25 03:27:34;;;;;;;57.10;25.42;;;;;;;2.54;100.00;101286.38;4870104;29;20305;-44
2022/11/25 03:30:01;;;;;;;65.32;26.08;;;;;;;2.53;100.00;101282.84;4873495;29;20305;-41
2022/11/25 03:32:26;;;;;;;61.60;26.50;;;;;;;2.58;100.00;101272.25;4858615;29;20277;-42
2022/11/25 03:34:52;;;;;;;59.40;26.83;;;;;;;2.58;100.00;101277.53;4858278;29;20750;-43
2022/11/25 03:37:18;;;;;;;54.53;27.23;;;;;;;2.57;100.00;101284.59;4866082;29;20544;-44
2022/11/25 03:39:44;;;;;;;61.55;26.98;;;;;;;2.60;100.00;101286.38;4862280;29;20279;-43
2022/11/25 03:42:10;;;;;;;72.22;28.67;;;;;;;2.60;100.00;101275.78;4869691;29;20197;-43
2022/11/25 03:44:36;;;;;;;63.38;28.73;;;;;;;2.61;100.00;101283.72;4862245;29;20245;-42
2022/11/25 03:47:01;;;;;;;71.47;29.83;;;;;;;2.63;100.00;101278.47;4862396;29;20221;-40
2022/11/25 03:49:28;;;;;;;63.15;29.40;;;;;;;2.59;100.00;101266.09;4865422;29;20210;-44
2022/11/25 03:51:53;;;;;;;76.85;29.45;;;;;;;2.62;100.00;101280.22;4862671;29;20189;-43
2022/11/25 03:54:20;;;;;;;64.25;29.30;;;;;;;2.65;100.00;101259.06;4865326;29;20238;-45
2022/11/25 03:57:04;;;;;;;59.78;27.70;;;;;;;2.67;100.00;101269.66;4864340;29;20224;-42
2022/11/25 03:59:31;;;;;;;60.28;27.60;;;;;;;2.64;100.00;101270.50;4863236;29;20190;-42
2022/11/25 04:01:56;;;;;;;60.83;27.92;;;;;;;2.65;100.00;101282.88;4861565;29;20201;-44
2022/11/25 04:04:22;;;;;;;60.85;27.40;;;;;;;2.64;100.00;101282.84;4867375;29;20281;-44
2022/11/25 04:06:47;;;;;;;64.32;28.55;;;;;;;2.62;100.00;101292.56;4862501;29;20562;-43
2022/11/25 04:09:13;;;;;;;59.05;28.13;;;;;;;2.59;100.00;101287.25;4879884;29;20261;-46
2022/11/25 04:14:26;;;;;;;65.80;28.70;;;;;;;2.57;100.00;101278.44;4863926;29;20194;-42
2022/11/25 04:16:52;;;;;;;65.95;28.30;;;;;;;2.56;100.00;101285.50;4864188;29;20289;-42
2022/11/25 04:19:18;;;;;;;62.55;27.83;;;;;;;2.54;100.00;101289.91;4863036;29;20205;-43
2022/11/25 04:21:44;;;;;;;57.05;25.38;;;;;;;2.53;100.00;101287.25;4881100;29;20257;-44
2022/11/25 04:24:10;;;;;;;66.25;27.02;;;;;;;2.52;100.00;101296.94;4879796;29;20194;-43
2022/11/25 04:26:36;;;;;;;60.72;26.98;;;;;;;2.52;100.00;101290.78;4869132;29;20636;-43
2022/11/25 04:29:02;;;;;;;63.67;28.70;;;;;;;2.52;100.00;101296.94;4864792;29;20732;-43
2022/11/25 04:31:28;;;;;;;57.47;26.40;;;;;;;2.52;100.00;101290.78;4855859;29;20195;-45
2022/11/25 04:33:53;;;;;;;55.33;26.40;;;;;;;2.56;100.00;101293.44;4863769;29;20194;-42
2022/11/25 04:36:21;;;;;;;63.13;28.17;;;;;;;2.53;100.00;101290.75;4868965;29;20186;-43
2022/11/25 04:38:47;;;;;;;58.38;26.85;;;;;;;2.54;100.00;101289.03;4864963;29;20229;-41
2022/11/25 04:41:12;;;;;;;58.50;27.08;;;;;;;2.57;100.00;101291.66;4873387;29;20901;-42
2022/11/25 04:43:41;;;;;;;69.57;28.17;;;;;;;2.52;100.00;101290.78;4857913;29;20675;-41
2022/11/25 04:46:23;;;;;;;71.97;29.10;;;;;;;2.53;100.00;101288.13;4867339;29;20647;-44
2022/11/25 04:48:50;;;;;;;72.28;28.13;;;;;;;2.55;100.00;101290.78;4871420;28;20638;-42
2022/11/25 04:51:16;;;;;;;50.78;25.23;;;;;;;2.59;100.00;101306.66;4863871;29;20271;-43
2022/11/25 04:53:42;;;;;;;65.88;27.77;;;;;;;2.58;100.00;101301.34;4870322;29;20190;-43
2022/11/25 04:56:16;;;;;;;76.65;29.10;;;;;;;2.57;100.00;101305.78;4868076;29;20182;-41
2022/11/25 05:01:28;;;;;;;63.03;26.73;;;;;;;2.58;100.00;101304.00;4873164;29;20197;-42
2022/11/25 05:04:01;;;;;;;73.57;28.25;;;;;;;2.62;100.00;101300.47;4858540;29;20570;-42
2022/11/25 05:06:27;;;;;;;63.22;26.15;;;;;;;2.58;100.00;101298.72;4870070;29;20190;-42
2022/11/25 05:08:53;;;;;;;80.47;28.58;;;;;;;2.55;100.00;101294.28;4879983;29;20221;-43
2022/11/25 05:11:21;;;;;;;64.97;27.23;;;;;;;2.56;100.00;101297.81;4868626;29;20201;-43
2022/11/25 05:13:47;;;;;;;80.05;29.63;;;;;;;2.55;100.00;101293.44;4865633;29;20190;-40
2022/11/25 05:16:12;;;;;;;73.65;28.73;;;;;;;2.62;100.00;101298.75;4867058;29;20197;-45
2022/11/25 05:18:38;;;;;;;70.95;27.40;;;;;;;2.61;100.00;101296.09;4860953;29;20205;-49
2022/11/25 05:21:06;;;;;;;68.90;28.88;;;;;;;2.62;100.00;101306.69;4867653;29;20272;-47
2022/11/25 05:23:36;;;;;;;68.93;28.95;;;;;;;2.57;100.00;101299.59;4860533;29;20689;-46
2022/11/25 05:26:03;;;;;;;71.25;27.23;;;;;;;2.58;100.00;101310.19;4864415;29;20190;-46
2022/11/25 05:28:35;;;;;;;64.93;26.63;;;;;;;2.62;100.00;101304.03;4869004;29;20304;-46
2022/11/25 05:31:01;;;;;;;63.42;25.60;;;;;;;2.59;100.00;101303.13;4874546;29;20710;-46
2022/11/25 05:33:28;;;;;;;67.90;25.50;;;;;;;2.58;100.00;101314.56;4864650;29;20572;-47
2022/11/25 05:35:59;;;;;;;74.68;28.02;;;;;;;2.57;100.00;101302.25;4861665;29;20213;-47
2022/11/25 05:38:30;;;;;;;76.53;26.08;;;;;;;2.56;100.00;101318.97;4861275;29;20217;-47
2022/11/25 05:41:03;;;;;;;65.00;25.58;;;;;;;2.57;100.00;101310.19;4870820;29;20182;-47
2022/11/25 05:43:29;;;;;;;60.47;24.67;;;;;;;2.58;100.00;101314.56;4869378;29;20186;-46
2022/11/25 05:45:56;;;;;;;69.45;26.30;;;;;;;2.58;100.00;101311.94;4856637;29;20197;-48
2022/11/25 05:48:22;;;;;;;63.78;25.27;;;;;;;2.59;100.00;101311.06;4871357;29;20214;-46
2022/11/25 05:50:48;;;;;;;66.05;26.33;;;;;;;2.59;100.00;101313.72;4865595;29;20582;-47
2022/11/25 05:53:19;;;;;;;65.57;25.73;;;;;;;2.59;100.00;101308.44;4870019;29;20230;-46
2022/11/25 05:55:55;;;;;;;62.15;25.33;;;;;;;2.60;100.00;101318.13;4867597;29;20190;-49
2022/11/25 05:58:32;;;;;;;65.40;26.15;;;;;;;2.60;100.00;101315.47;4855759;29;20243;-47
2022/11/25 06:00:59;;;;;;;63.72;26.27;;;;;;;2.56;100.00;101301.38;4866682;29;20674;-49
2022/11/25 06:03:27;;;;;;;72.32;28.10;;;;;;;2.54;100.00;101302.25;4871219;29;20251;-49
2022/11/25 06:05:55;;;;;;;64.60;26.42;;;;;;;2.55;100.00;101299.59;4870465;29;20681;-46
2022/11/25 06:08:21;;;;;;;64.32;26.05;;;;;;;2.56;100.00;101298.72;4858618;29;20253;-47
2022/11/25 06:10:46;;;;;;;67.30;27.02;;;;;;;2.54;100.00;101308.41;4860264;29;20198;-47
2022/11/25 06:13:12;;;;;;;67.18;27.50;;;;;;;2.55;100.00;101315.47;4865018;29;20714;-46
2022/11/25 06:15:43;;;;;;;67.07;28.60;;;;;;;2.54;100.00;101310.19;4858750;29;20189;-46
2022/11/25 06:18:11;;;;;;;63.58;27.85;;;;;;;2.48;100.00;101306.63;4868169;29;21190;-46
2022/11/25 06:20:37;;;;;;;58.83;26.70;;;;;;;2.50;100.00;101304.00;4864294;29;20589;-47
2022/11/25 06:23:02;;;;;;;62.33;28.00;;;;;;;2.47;100.00;101306.63;4857251;29;20193;-46
2022/11/25 06:25:32;;;;;;;63.75;26.48;;;;;;;2.48;100.00;101313.69;4869679;29;20569;-47
2022/11/25 06:27:58;;;;;;;62.55;27.00;;;;;;;2.45;100.00;101303.13;4869222;29;20218;-46
2022/11/25 06:30:24;;;;;;;65.78;26.60;;;;;;;2.41;100.00;101306.63;4882545;29;20225;-46
2022/11/25 06:33:04;;;;;;;66.57;26.77;;;;;;;2.42;100.00;101300.44;4871907;29;20614;-45
2022/11/25 06:35:30;;;;;;;57.45;25.77;;;;;;;2.40;100.00;101303.06;4866991;29;20193;-46
2022/11/25 06:38:00;;;;;;;56.00;25.73;;;;;;;2.39;100.00;101295.16;4859095;29;20209;-45
2022/11/25 06:40:25;;;;;;;60.90;26.73;;;;;;;2.34;100.00;101312.75;4861882;29;20212;-46
2022/11/25 06:42:51;;;;;;;64.18;26.42;;;;;;;2.35;100.00;101303.94;4864513;29;20220;-46
2022/11/25 06:45:17;;;;;;;56.72;25.25;;;;;;;2.39;100.00;101311.91;4856819;29;20194;-49
2022/11/25 06:47:42;;;;;;;55.50;24.95;;;;;;;2.36;100.00;101306.63;4864856;29;20214;-48
2022/11/25 06:50:08;;;;;;;57.63;26.08;;;;;;;2.35;100.00;101306.59;4859535;29;20746;-49
2022/11/25 06:52:33;;;;;;;52.90;23.20;;;;;;;2.34;100.00;101302.16;4865750;29;20281;-48
2022/11/25 06:54:59;;;;;;;52.75;25.30;;;;;;;2.33;100.00;101298.66;4862379;29;20201;-49
2022/11/25 06:57:25;;;;;;;54.30;24.67;;;;;;;2.40;100.00;101307.47;4858247;29;20213;-47
2022/11/25 06:59:50;;;;;;;58.50;24.27;;;;;;;2.39;100.00;101309.25;4864336;28;20272;-47
2022/11/25 07:02:16;;;;;;;44.67;22.92;;;;;;;2.43;100.00;101302.22;4858611;29;20201;-47
2022/11/25 07:04:41;;;;;;;52.55;23.73;;;;;;;2.48;100.00;101301.34;4861581;29;20193;-49
2022/11/25 07:07:07;;;;;;;55.67;23.95;;;;;;;2.53;100.00;101297.81;4863060;29;20687;-49
2022/11/25 07:09:33;;;;;;;46.10;23.40;;;;;;;2.55;100.00;101296.94;4861758;29;20217;-48
2022/11/25 07:11:59;;;;;;;46.75;22.75;;;;;;;2.60;100.00;101302.25;4867408;29;20202;-48
2022/11/25 07:14:24;;;;;;;46.92;22.83;;;;;;;2.59;100.00;101293.44;4860403;29;20238;-47
2022/11/25 07:16:50;;;;;;;47.67;23.42;;;;;;;2.63;100.00;101299.63;4857109;29;20253;-46
2022/11/25 07:19:17;;;;;;;45.92;21.23;;;;;;;2.63;100.00;101291.69;4856271;29;20201;-47
2022/11/25 07:21:44;;;;;;;39.63;21.17;;;;;;;2.63;100.00;101297.84;4855563;29;20225;-48
2022/11/25 07:24:12;;;;;;;41.85;21.33;;;;;;;2.64;100.00;101314.59;4862101;29;20190;-47
2022/11/25 07:26:40;;;;;;;36.63;20.08;;;;;;;2.64;100.00;101311.94;4856826;29;20309;-49
2022/11/25 07:29:08;;;;;;;35.72;19.92;;;;;;;2.66;100.00;101323.41;4864745;29;20206;-49
2022/11/25 07:31:37;;;;;;;39.08;20.17;;;;;;;2.66;100.00;101328.72;4857668;29;20197;-46
2022/11/25 07:34:04;;;;;;;42.90;20.70;;;;;;;2.63;100.00;101326.06;4857682;29;20190;-49
2022/11/25 07:36:31;;;;;;;43.65;21.17;;;;;;;2.64;100.00;101319.88;4859402;29;20220;-48
2022/11/25 07:38:59;;;;;;;35.63;19.80;;;;;;;2.67;100.00;101323.44;4860409;29;20293;-48
2022/11/25 07:41:26;;;;;;;44.78;18.95;;;;;;;2.65;100.00;101326.97;4855402;29;20205;-48
2022/11/25 07:43:57;;;;;;;31.52;17.77;;;;;;;2.56;100.00;101322.53;4855267;29;20213;-48
2022/11/25 07:46:28;;;;;;;31.48;17.55;;;;;;;2.59;100.00;101327.81;4860330;29;20671;-49
2022/11/25 07:48:55;;;;;;;28.50;15.95;;;;;;;2.57;100.00;101334.00;4867346;28;20581;-47
2022/11/25 07:51:24;;;;;;;31.33;17.73;;;;;;;2.62;100.00;101340.16;4863621;29;20194;-49
2022/11/25 07:53:51;;;;;;;28.65;17.02;;;;;;;2.58;100.00;101341.94;4860710;29;20654;-49
2022/11/25 07:56:17;;;;;;;29.48;15.95;;;;;;;2.67;100.00;101336.66;4856860;29;20281;-48
2022/11/25 07:58:44;;;;;;;26.42;16.15;;;;;;;2.73;100.00;101338.41;4865797;29;20232;-48
2022/11/25 08:01:11;;;;;;;25.92;15.25;;;;;;;2.74;100.00;101331.41;4861844;28;20237;-49
2022/11/25 08:03:39;;;;;;;28.25;15.68;;;;;;;2.70;100.00;101333.13;4868904;29;20196;-50
2022/11/25 08:06:10;;;;;;;26.50;14.00;;;;;;;2.71;100.00;101331.38;4861926;29;20202;-47
2022/11/25 08:08:37;;;;;;;20.92;14.57;;;;;;;2.76;100.00;101330.50;4860763;29;20288;-48
2022/11/25 08:11:24;;;;;;;24.23;14.40;;;;;;;2.79;100.00;101333.16;4855180;29;20209;-49
2022/11/25 08:13:50;;;;;;;21.48;14.35;;;;;;;2.85;100.00;101335.81;4864221;29;20194;-47
2022/11/25 08:16:17;;;;;;;22.73;13.45;;;;;;;2.89;100.00;101328.78;4861785;29;20200;-49
2022/11/25 08:18:43;;;;;;;22.48;13.48;;;;;;;2.96;100.00;101327.00;4855654;29;20218;-48
2022/11/25 08:21:11;;;;;;;23.02;13.50;;;;;;;3.03;100.00;101337.59;4864990;29;20193;-49
2022/11/25 08:23:39;;;;;;;18.33;12.25;;;;;;;3.04;100.00;101327.88;4860046;29;20340;-47
2022/11/25 08:26:10;;;;;;;21.38;12.88;;;;;;;3.06;100.00;101336.72;4857252;29;20686;-48
2022/11/25 08:28:37;;;;;;;21.23;11.95;;;;;;;3.09;100.00;101334.97;4858047;29;20218;-47
2022/11/25 08:31:05;;;;;;;19.10;11.93;;;;;;;3.07;100.00;101334.06;4857997;29;20210;-48
2022/11/25 08:33:31;;;;;;;20.98;13.05;;;;;;;3.06;100.00;101347.28;4859975;29;20652;-44
2022/11/25 08:35:57;;;;;;;26.65;12.30;;;;;;;3.09;100.00;101347.31;4857123;29;20198;-47
2022/11/25 08:38:23;;;;;;;17.45;12.18;;;;;;;3.03;100.00;101336.72;4865719;29;20217;-47
2022/11/25 08:40:49;;;;;;;18.77;12.30;;;;;;;3.03;100.00;101342.00;4862880;29;20181;-47
2022/11/25 08:43:15;;;;;;;26.63;14.48;;;;;;;3.01;100.00;101349.06;4862802;29;20671;-48
2022/11/25 08:45:40;;;;;;;18.05;12.45;;;;;;;3.02;100.00;101337.63;4863294;29;20186;-47
2022/11/25 08:48:06;;;;;;;20.52;12.73;;;;;;;3.07;100.00;101335.84;4860643;29;20213;-45
2022/11/25 08:50:32;;;;;;;20.67;13.18;;;;;;;3.09;100.00;101342.03;4860352;29;20208;-48
2022/11/25 08:52:59;;;;;;;26.65;13.50;;;;;;;3.07;100.00;101339.38;4859275;29;20653;-48
2022/11/25 08:55:26;;;;;;;22.05;13.68;;;;;;;3.08;100.00;101341.16;4858171;29;20206;-48
2022/11/25 08:57:53;;;;;;;23.10;12.00;;;;;;;3.12;100.00;101344.66;4857544;29;20210;-48
2022/11/25 09:00:19;;;;;;;23.30;13.65;;;;;;;3.14;100.00;101334.06;4861395;29;20224;-46
2022/11/25 09:02:45;;;;;;;21.27;13.00;;;;;;;3.16;100.00;101337.63;4865532;28;20186;-47
2022/11/25 09:05:13;;;;;;;19.33;13.27;;;;;;;3.19;100.00;101329.66;4856763;29;20302;-47
2022/11/25 09:07:39;;;;;;;19.65;12.98;;;;;;;3.23;100.00;101327.00;4860460;29;20248;-48
2022/11/25 09:10:07;;;;;;;17.83;12.20;;;;;;;3.24;100.00;101325.25;4859128;29;20233;-47
2022/11/25 09:12:32;;;;;;;21.33;12.68;;;;;;;3.26;100.00;101332.31;4869316;29;20226;-44
2022/11/25 09:14:58;;;;;;;20.65;12.50;;;;;;;3.32;100.00;101330.53;4866719;29;20224;-42
2022/11/25 09:17:23;;;;;;;19.45;12.18;;;;;;;3.36;100.00;101332.31;4867381;29;20221;-43
2022/11/25 09:19:49;;;;;;;24.20;13.20;;;;;;;3.34;100.00;101326.13;4868453;29;20198;-42
2022/11/25 09:22:14;;;;;;;25.92;13.40;;;;;;;3.41;100.00;101328.78;4864452;29;20221;-42
2022/11/25 09:24:42;;;;;;;21.42;12.68;;;;;;;3.46;100.00;101332.31;4862924;29;20189;-41
2022/11/25 09:27:08;;;;;;;21.10;13.05;;;;;;;3.47;100.00;101336.69;4861027;29;20278;-42
2022/11/25 09:29:33;;;;;;;18.00;11.88;;;;;;;3.53;100.00;101330.53;4862811;29;20284;-42
2022/11/25 09:31:59;;;;;;;21.70;13.18;;;;;;;3.54;100.00;101331.41;4864536;29;20213;-43
2022/11/25 09:34:24;;;;;;;22.42;13.35;;;;;;;3.62;100.00;101327.84;4863449;29;20575;-44
2022/11/25 09:36:50;;;;;;;22.95;12.07;;;;;;;3.60;100.00;101334.94;4860852;29;20197;-45
2022/11/25 09:39:16;;;;;;;19.92;12.00;;;;;;;3.63;100.00;101340.25;4863902;29;20189;-43
2022/11/25 09:48:30;;;;;;;24.95;12.20;;;;;;;3.80;100.00;101337.53;4859876;29;20214;-43
2022/11/25 09:51:20;;;;;;;27.17;12.95;;;;;;;3.86;100.00;101334.88;4866743;29;20291;-43
2022/11/25 09:53:57;;;;;;;23.45;12.90;;;;;;;3.88;100.00;101338.41;4872704;29;20194;-41
2022/11/25 09:56:35;;;;;;;21.27;11.55;;;;;;;3.87;100.00;101344.63;4860568;29;20232;-44
2022/11/25 09:59:17;;;;;;;20.33;12.30;;;;;;;3.88;100.00;101334.88;4864505;29;20185;-42
2022/11/25 10:01:54;;;;;;;25.50;11.48;;;;;;;3.93;100.00;101335.75;4864434;29;21155;-44
2022/11/25 10:04:25;;;;;;;23.10;11.20;;;;;;;4.01;100.00;101333.97;4863375;29;20295;-41
2022/11/25 10:06:57;;;;;;;24.10;12.13;;;;;;;4.02;100.00;101343.66;4866229;29;20197;-44
2022/11/25 10:09:29;;;;;;;19.48;11.10;;;;;;;4.11;100.00;101337.44;4866462;29;20256;-43
2022/11/25 10:12:00;;;;;;;22.02;12.43;;;;;;;4.11;100.00;101329.50;4863722;29;20196;-43
2022/11/25 10:14:44;;;;;;;24.80;11.85;;;;;;;4.14;100.00;101332.16;4858777;29;20193;-42
2022/11/25 10:17:09;;;;;;;18.23;11.05;;;;;;;4.21;100.00;101338.31;4860978;29;20213;-43
2022/11/25 10:19:49;;;;;;;19.58;12.18;;;;;;;4.21;100.00;101338.31;4862185;29;20217;-43
2022/11/25 10:22:32;;;;;;;17.58;11.23;;;;;;;4.25;100.00;101346.25;4857765;29;20261;-43
2022/11/25 10:25:01;;;;;;;20.90;11.45;;;;;;;4.27;100.00;101349.78;4861815;29;20197;-41
2022/11/25 10:27:43;;;;;;;21.33;12.15;;;;;;;4.26;100.00;101345.38;4860373;29;20202;-44
2022/11/25 10:30:20;;;;;;;19.52;11.93;;;;;;;4.29;100.00;101341.81;4860535;29;20202;-44
2022/11/25 10:32:54;;;;;;;19.30;12.30;;;;;;;4.33;100.00;101340.94;4857251;29;20225;-42
2022/11/25 10:35:29;;;;;;;17.05;11.43;;;;;;;4.28;100.00;101345.34;4865724;29;20682;-40
2022/11/25 10:37:59;;;;;;;18.20;11.57;;;;;;;4.27;100.00;101348.91;4861549;29;20295;-43
2022/11/25 10:40:25;;;;;;;18.98;11.43;;;;;;;4.25;100.00;101351.56;4863737;29;20281;-44
2022/11/25 10:42:50;;;;;;;20.17;11.43;;;;;;;4.33;100.00;101344.47;4862261;29;20186;-43
2022/11/25 10:45:16;;;;;;;25.80;11.90;;;;;;;4.31;100.00;101340.06;4861513;29;20197;-41
2022/11/25 10:48:05;;;;;;;23.00;11.63;;;;;;;4.28;100.00;101346.22;4857067;29;20276;-44
2022/11/25 10:50:39;;;;;;;20.38;13.30;;;;;;;4.34;100.00;101346.19;4864086;29;20213;-44
2022/11/25 10:53:16;;;;;;;22.42;13.25;;;;;;;4.33;100.00;101348.88;4862850;29;20280;-43
2022/11/25 10:56:18;;;;;;;22.63;12.13;;;;;;;4.26;100.00;101357.72;4870855;29;20193;-42
2022/11/25 10:58:43;;;;;;;22.10;12.48;;;;;;;4.29;100.00;101357.75;4859842;29;20236;-45
2022/11/25 11:01:24;;;;;;;23.30;13.32;;;;;;;4.25;100.00;101348.91;4861600;29;20185;-43
2022/11/25 11:04:17;;;;;;;27.00;13.50;;;;;;;4.29;100.00;101353.31;4859830;29;20280;-44
2022/11/25 11:06:49;;;;;;;23.88;13.02;;;;;;;4.32;100.00;101352.41;4857791;29;20257;-43
2022/11/25 11:09:39;;;;;;;20.38;13.00;;;;;;;4.34;100.00;101355.94;4864632;29;20256;-43
2022/11/25 11:12:28;;;;;;;24.40;13.13;;;;;;;4.38;100.00;101356.81;4861345;29;20195;-43
2022/11/25 11:15:20;;;;;;;24.05;13.00;;;;;;;4.40;100.00;101363.00;4861268;29;20689;-43
2022/11/25 11:17:47;;;;;;;28.52;13.75;;;;;;;4.44;100.00;101364.72;4863535;29;20277;-43
2022/11/25 11:20:23;;;;;;;28.08;13.80;;;;;;;4.46;100.00;101360.28;4860627;29;20241;-43
2022/11/25 11:22:56;;;;;;;21.80;12.23;;;;;;;4.51;100.00;101361.19;4862821;29;20186;-43
2022/11/25 11:25:27;;;;;;;26.15;13.38;;;;;;;4.51;100.00;101362.06;4872300;29;20209;-43
2022/11/25 11:27:53;;;;;;;22.95;12.38;;;;;;;4.54;100.00;101361.16;4860848;29;20214;-44
2022/11/25 11:30:22;;;;;;;23.50;12.68;;;;;;;4.56;100.00;101355.84;4860973;29;20725;-41
2022/11/25 11:33:19;;;;;;;22.65;12.63;;;;;;;4.59;100.00;101366.44;4865209;29;20665;-43
2022/11/25 11:36:05;;;;;;;22.80;12.18;;;;;;;4.61;100.00;101364.66;4876265;29;20392;-43